Time;durP1;ratioP1;P1;durP2;ratioP2;P2;SDS_P1;SDS_P2;PMS_P1;PMS_P2;Temp;Humidity;BMP_temperature;BMP_pressure;BME280_temperature;BME280_humidity;BME280_pressure;Samples;Min_cycle;Max_cycle;Signal;HPM_P1;HPM_P2
2023/10/09 00:01:51;;;;;;;0.10;0.10;;;;;;;21.95;57.17;102011.06;5070367;28;20064;-65
2023/10/09 00:04:17;;;;;;;0.10;0.10;;;;;;;21.82;57.83;102007.78;5071557;28;20531;-66
2023/10/09 00:06:43;;;;;;;0.10;0.10;;;;;;;22.02;57.32;102006.97;5071117;28;20579;-64
2023/10/09 00:11:48;;;;;;;0.10;0.10;;;;;;;22.12;56.79;102003.41;5070992;28;20032;-65
2023/10/09 00:14:15;;;;;;;0.10;0.10;;;;;;;22.11;57.19;101999.03;5071624;28;20039;-64
2023/10/09 00:16:47;;;;;;;0.10;0.10;;;;;;;22.07;57.33;102000.69;5071086;28;20503;-64
2023/10/09 00:19:16;;;;;;;0.10;0.10;;;;;;;22.07;56.80;101990.56;5070820;28;20046;-63
2023/10/09 00:21:42;;;;;;;0.10;0.10;;;;;;;22.18;57.04;101994.09;5071104;28;20067;-63
2023/10/09 00:24:13;;;;;;;0.10;0.10;;;;;;;22.08;57.49;101991.34;5071319;28;20032;-64
2023/10/09 00:26:46;;;;;;;0.10;0.10;;;;;;;22.00;58.80;101983.69;5070847;28;20048;-64
2023/10/09 00:29:22;;;;;;;0.15;0.15;;;;;;;21.75;59.66;101979.00;5071518;28;20051;-64
2023/10/09 00:31:54;;;;;;;0.10;0.10;;;;;;;22.11;58.67;101977.94;5071110;28;20049;-65
2023/10/09 00:34:21;;;;;;;0.17;0.17;;;;;;;21.93;59.63;101981.25;5070800;28;20036;-64
2023/10/09 00:36:52;;;;;;;0.10;0.10;;;;;;;22.21;59.00;101974.41;5070672;28;20497;-64
2023/10/09 00:42:02;;;;;;;0.10;0.10;;;;;;;22.32;58.97;101970.53;5070966;28;20488;-63
2023/10/09 00:44:37;;;;;;;0.10;0.10;;;;;;;22.41;57.96;101963.41;5071583;28;20027;-64
2023/10/09 00:47:10;;;;;;;0.10;0.10;;;;;;;22.39;59.03;101960.13;5070906;28;20049;-64
2023/10/09 00:49:41;;;;;;;0.10;0.10;;;;;;;22.10;61.26;101959.06;5070376;28;20407;-66
2023/10/09 00:52:17;;;;;;;0.10;0.10;;;;;;;22.18;60.68;101961.25;5070623;28;20033;-65
2023/10/09 00:54:44;;;;;;;0.10;0.10;;;;;;;22.07;61.65;101959.63;5070415;28;20033;-65
2023/10/09 00:57:13;;;;;;;0.10;0.10;;;;;;;22.44;60.08;101957.38;5069803;28;20437;-64
2023/10/09 00:59:42;;;;;;;0.10;0.10;;;;;;;22.70;59.01;101946.09;5070615;28;20091;-66
2023/10/09 01:02:08;;;;;;;0.10;0.10;;;;;;;22.93;58.81;101952.06;5070820;28;20086;-65
2023/10/09 01:04:40;;;;;;;0.15;0.15;;;;;;;22.75;59.34;101942.53;5068721;28;20028;-65
2023/10/09 01:07:09;;;;;;;0.10;0.10;;;;;;;22.95;58.54;101931.50;5069851;28;20044;-64
2023/10/09 01:09:38;;;;;;;0.10;0.10;;;;;;;22.94;59.41;101923.56;5070418;28;20036;-64
2023/10/09 01:12:04;;;;;;;0.10;0.10;;;;;;;23.15;58.65;101912.19;5070019;28;20040;-64
2023/10/09 01:14:35;;;;;;;0.10;0.10;;;;;;;22.89;59.44;101915.34;5070006;28;20067;-64
2023/10/09 01:17:02;;;;;;;0.10;0.10;;;;;;;22.82;59.94;101912.88;5070652;28;20029;-65
2023/10/09 01:19:27;;;;;;;0.10;0.10;;;;;;;22.81;60.28;101924.13;5069943;28;20159;-64
2023/10/09 01:21:53;;;;;;;0.10;0.10;;;;;;;23.04;59.69;101928.97;5069465;28;20531;-64
2023/10/09 01:24:19;;;;;;;0.10;0.10;;;;;;;22.66;61.43;101925.81;5069159;28;20249;-63
2023/10/09 01:26:46;;;;;;;0.10;0.10;;;;;;;22.61;62.18;101914.91;5069536;28;20121;-64
2023/10/09 01:29:27;;;;;;;0.10;0.10;;;;;;;22.87;61.44;101912.88;5052346;28;20024;-65
2023/10/09 01:31:56;;;;;;;;;;;;;;;23.00;61.54;101919.66;5070622;28;20032;-65
2023/10/09 01:37:18;;;;;;;0.10;0.10;;;;;;;22.57;63.89;101907.50;5026907;28;20667;-64
2023/10/09 01:39:48;;;;;;;0.00;0.00;;;;;;;23.36;59.94;101908.25;5026688;28;20069;-64
2023/10/09 01:44:58;;;;;;;0.10;0.10;;;;;;;21.91;66.31;101898.59;5027960;28;20029;-64
2023/10/09 01:47:25;;;;;;;0.10;0.10;;;;;;;22.35;64.47;101899.59;5026310;28;20512;-65
2023/10/09 01:49:53;;;;;;;0.13;0.13;;;;;;;22.14;65.05;101898.00;5026294;28;20123;-64
2023/10/09 01:52:20;;;;;;;0.15;0.15;;;;;;;22.25;65.45;101891.41;5026429;28;20110;-64
2023/10/09 01:54:48;;;;;;;0.10;0.10;;;;;;;22.66;63.41;101870.22;5026632;28;20536;-64
2023/10/09 01:57:15;;;;;;;0.00;0.00;;;;;;;22.58;63.92;101866.13;5024360;28;20080;-65
2023/10/09 01:59:44;;;;;;;0.10;0.10;;;;;;;22.21;64.99;101854.72;5007429;28;20030;-65
2023/10/09 02:02:26;;;;;;;0.10;0.10;;;;;;;22.23;65.13;101855.25;4991331;28;20185;-64
2023/10/09 02:05:10;;;;;;;0.10;0.10;;;;;;;22.39;65.61;101865.06;4988504;28;20043;-64
2023/10/09 02:07:51;;;;;;;0.10;0.10;;;;;;;23.02;61.85;101871.69;4967681;28;20038;-62
2023/10/09 02:13:06;;;;;;;0.10;0.10;;;;;;;23.55;60.03;101867.22;4980506;28;20580;-64
2023/10/09 02:21:28;;;;;;;0.10;0.10;;;;;;;23.55;60.32;101843.34;4986837;28;20042;-64
2023/10/09 02:23:49;;;;;;;0.10;0.10;;;;;;;23.05;62.08;101840.13;4986270;28;20538;-64
2023/10/09 02:26:26;;;;;;;0.10;0.10;;;;;;;23.16;61.19;101847.19;4986995;28;20050;-65
2023/10/09 02:28:58;;;;;;;0.10;0.10;;;;;;;23.42;61.32;101843.19;4987008;28;20514;-64
2023/10/09 02:31:26;;;;;;;0.10;0.10;;;;;;;23.79;59.04;101846.16;4987078;28;20034;-64
2023/10/09 02:33:55;;;;;;;0.10;0.10;;;;;;;23.42;61.25;101845.94;4986684;28;20462;-64
2023/10/09 02:36:20;;;;;;;0.10;0.10;;;;;;;23.34;61.09;101858.34;4970677;28;20027;-64
2023/10/09 02:38:48;;;;;;;0.10;0.10;;;;;;;22.78;62.92;101851.50;5018634;28;20513;-64
2023/10/09 02:43:50;;;;;;;0.10;0.10;;;;;;;23.01;62.68;101858.25;5005861;28;20108;-64
2023/10/09 02:46:28;;;;;;;0.10;0.10;;;;;;;23.44;61.23;101865.69;5006555;28;20034;-64
2023/10/09 02:48:56;;;;;;;0.10;0.10;;;;;;;23.89;59.33;101862.53;5006520;28;20104;-64
2023/10/09 02:53:55;;;;;;;0.10;0.10;;;;;;;23.88;60.03;101854.59;5006783;28;20054;-64
2023/10/09 02:56:24;;;;;;;0.10;0.10;;;;;;;22.35;66.56;101852.19;5014218;28;20049;-62
2023/10/09 02:59:05;;;;;;;0.10;0.10;;;;;;;22.77;64.24;101835.34;5058854;28;20039;-64
2023/10/09 03:01:31;;;;;;;0.05;0.05;;;;;;;23.22;62.75;101824.94;5065691;28;20158;-63
2023/10/09 03:03:59;;;;;;;0.10;0.10;;;;;;;22.74;64.81;101822.22;5048503;28;20041;-65
2023/10/09 03:06:30;;;;;;;0.10;0.10;;;;;;;22.33;66.19;101821.53;5048711;28;20041;-64
2023/10/09 03:08:59;;;;;;;0.10;0.10;;;;;;;22.91;65.01;101818.00;5049203;28;20087;-64
2023/10/09 03:11:26;;;;;;;0.00;0.00;;;;;;;23.47;61.87;101821.19;5048745;28;20504;-65
2023/10/09 03:13:53;;;;;;;0.10;0.10;;;;;;;23.01;64.12;101817.13;5048453;28;20041;-64
2023/10/09 03:16:21;;;;;;;0.10;0.10;;;;;;;23.14;63.44;101821.97;5048346;28;20087;-62
2023/10/09 03:18:52;;;;;;;0.10;0.10;;;;;;;23.08;63.27;101831.31;5048491;28;20033;-63
2023/10/09 03:21:18;;;;;;;0.10;0.10;;;;;;;23.34;62.58;101819.09;5048247;28;20021;-65
2023/10/09 03:23:49;;;;;;;0.00;0.00;;;;;;;22.59;65.33;101820.38;5048956;28;20377;-64
2023/10/09 03:26:17;;;;;;;0.10;0.10;;;;;;;23.10;63.32;101824.47;5048339;28;20041;-64
2023/10/09 03:28:44;;;;;;;0.00;0.00;;;;;;;23.12;63.67;101819.50;5048348;28;20040;-64
2023/10/09 03:31:10;;;;;;;0.00;0.00;;;;;;;22.84;64.59;101803.78;5048536;28;20102;-64
2023/10/09 03:33:36;;;;;;;0.10;0.10;;;;;;;23.20;63.50;101807.09;5048601;28;20045;-64
2023/10/09 03:36:01;;;;;;;0.10;0.10;;;;;;;22.83;64.63;101802.16;5048748;28;20032;-64
2023/10/09 03:38:34;;;;;;;0.00;0.00;;;;;;;23.05;63.80;101799.00;5048349;28;20064;-64
2023/10/09 03:41:05;;;;;;;0.10;0.10;;;;;;;22.82;65.69;101803.25;5062631;28;20028;-64
2023/10/09 03:43:34;;;;;;;0.10;0.10;;;;;;;22.94;64.39;101809.22;5068189;28;20040;-65
2023/10/09 03:46:03;;;;;;;0.10;0.10;;;;;;;23.53;62.48;101811.81;5069410;28;20558;-63
2023/10/09 03:48:32;;;;;;;0.00;0.00;;;;;;;24.18;59.97;101824.09;5072093;28;20021;-64
2023/10/09 03:51:12;;;;;;;0.10;0.10;;;;;;;23.17;63.02;101830.47;5072272;28;20024;-63
2023/10/09 03:53:42;;;;;;;0.10;0.10;;;;;;;22.38;66.76;101827.84;5071600;28;20033;-66
2023/10/09 03:56:12;;;;;;;0.10;0.10;;;;;;;23.04;64.31;101828.34;5069976;28;20520;-64
2023/10/09 03:58:42;;;;;;;0.10;0.10;;;;;;;23.33;63.71;101834.75;5058058;28;20025;-64
2023/10/09 04:01:22;;;;;;;0.10;0.10;;;;;;;22.92;64.99;101838.03;5047335;28;20386;-65
2023/10/09 04:03:48;;;;;;;0.10;0.00;;;;;;;23.19;64.04;101839.19;5034885;28;20540;-64
2023/10/09 04:06:17;;;;;;;0.10;0.10;;;;;;;23.39;63.33;101833.59;5035112;28;20040;-64
2023/10/09 04:08:47;;;;;;;0.10;0.10;;;;;;;23.17;63.71;101835.94;5067498;28;20059;-64
2023/10/09 04:11:16;;;;;;;0.00;0.00;;;;;;;23.42;63.03;101832.22;5056818;28;20125;-64
2023/10/09 04:13:49;;;;;;;0.00;0.00;;;;;;;23.61;62.84;101813.94;5070585;28;20037;-63
2023/10/09 04:18:56;;;;;;;0.10;0.10;;;;;;;23.77;62.38;101829.16;5071409;28;20048;-64
2023/10/09 04:21:34;;;;;;;0.00;0.00;;;;;;;23.21;63.79;101831.50;5052933;28;20061;-65
2023/10/09 04:26:37;;;;;;;0.00;0.00;;;;;;;22.57;66.92;101830.78;5071288;28;20028;-65
2023/10/09 04:29:03;;;;;;;0.08;0.08;;;;;;;23.88;61.85;101825.19;5071156;28;20041;-64
2023/10/09 04:31:31;;;;;;;0.10;0.10;;;;;;;23.34;63.36;101832.81;5068693;28;20037;-65
2023/10/09 04:36:49;;;;;;;0.05;0.05;;;;;;;23.78;62.31;101833.56;5056846;28;20098;-64
2023/10/09 04:47:37;;;;;;;0.00;0.00;;;;;;;23.01;65.87;101833.56;5070442;28;20434;-63
2023/10/09 04:58:24;;;;;;;0.00;0.00;;;;;;;23.77;62.29;101834.66;5068563;28;20048;-65
2023/10/09 05:02:54;;;;;;;0.00;0.00;;;;;;;23.81;62.91;101845.88;5070877;28;20036;-65
2023/10/09 05:08:19;;;;;;;0.10;0.10;;;;;;;23.65;63.05;101847.09;5069838;28;20250;-65
2023/10/09 05:16:25;;;;;;;0.08;0.00;;;;;;;24.19;60.77;101869.69;5068025;28;20124;-64
2023/10/09 05:18:59;;;;;;;0.00;0.00;;;;;;;24.43;60.33;101873.28;5070156;28;20094;-64
2023/10/09 05:34:33;;;;;;;0.10;0.10;;;;;;;23.02;65.91;101887.28;5069896;28;20124;-64
2023/10/09 05:37:16;;;;;;;0.10;0.10;;;;;;;23.16;65.48;101883.66;5069715;28;20060;-64
2023/10/09 05:39:42;;;;;;;0.00;0.00;;;;;;;23.13;65.49;101878.75;5051589;28;20040;-64
2023/10/09 05:42:17;;;;;;;0.10;0.10;;;;;;;23.14;66.19;101882.28;5069928;28;20020;-64
2023/10/09 05:46:06;;;;;;;0.10;0.10;;;;;;;23.26;66.19;101885.50;5074858;28;20097;-63
2023/10/09 05:47:53;;;;;;;0.10;0.10;;;;;;;22.74;68.02;101888.00;5077574;28;20044;-64
2023/10/09 06:03:49;;;;;;;0.03;0.03;;;;;;;23.50;65.78;101875.50;5077842;28;20059;-63
2023/10/09 06:11:38;;;;;;;0.00;0.00;;;;;;;23.90;64.39;101850.44;5069161;28;20041;-63
2023/10/09 06:16:43;;;;;;;0.10;0.10;;;;;;;23.98;64.21;101868.25;5068901;28;20041;-63
2023/10/09 06:19:25;;;;;;;0.00;0.00;;;;;;;23.35;66.49;101875.63;5069139;28;20032;-64
2023/10/09 06:24:18;;;;;;;0.08;0.08;;;;;;;23.39;66.16;101884.91;5069313;28;20025;-64
2023/10/09 06:29:38;;;;;;;0.10;0.10;;;;;;;23.82;65.65;101877.72;5026134;28;20397;-64
2023/10/09 06:34:52;;;;;;;0.00;0.00;;;;;;;23.96;64.75;101882.22;5026109;28;20053;-63
2023/10/09 06:42:34;;;;;;;0.00;0.00;;;;;;;23.55;66.51;101880.94;5025820;28;20485;-65
2023/10/09 06:45:04;;;;;;;0.03;0.03;;;;;;;24.34;63.33;101886.84;5020944;28;20026;-64
2023/10/09 06:47:36;;;;;;;0.00;0.00;;;;;;;24.33;62.76;101884.38;5027187;28;20048;-63
2023/10/09 06:52:57;;;;;;;0.00;0.00;;;;;;;24.31;63.41;101868.16;4966999;28;20047;-63
2023/10/09 06:55:34;;;;;;;0.00;0.00;;;;;;;24.30;63.27;101863.78;4967100;28;20046;-64
2023/10/09 06:58:09;;;;;;;0.00;0.00;;;;;;;24.31;63.96;101861.88;4967066;28;20051;-65
2023/10/09 07:03:19;;;;;;;0.00;0.00;;;;;;;24.24;63.50;101873.19;4967103;28;20351;-64
2023/10/09 07:06:04;;;;;;;0.00;0.00;;;;;;;24.00;65.08;101860.53;4971740;28;20031;-63
2023/10/09 07:08:36;;;;;;;0.00;0.00;;;;;;;24.40;63.71;101865.59;4986274;28;20034;-64
2023/10/09 07:14:06;;;;;;;0.00;0.00;;;;;;;24.75;62.07;101851.44;4986183;28;20052;-64
2023/10/09 07:16:57;;;;;;;0.00;0.00;;;;;;;24.68;62.45;101872.97;4999047;28;20357;-63
2023/10/09 07:22:03;;;;;;;0.10;0.10;;;;;;;24.18;64.15;101888.09;5008709;28;20034;-65
2023/10/09 07:24:43;;;;;;;0.00;0.00;;;;;;;24.18;64.98;101890.84;5009814;28;20038;-65
2023/10/09 07:27:13;;;;;;;0.00;0.00;;;;;;;24.28;64.13;101893.50;5010271;28;20049;-64
2023/10/09 07:29:48;;;;;;;0.10;0.10;;;;;;;24.61;62.75;101886.22;5034516;28;20040;-64
2023/10/09 07:32:20;;;;;;;0.00;0.00;;;;;;;24.43;64.11;101881.53;5071942;28;20481;-63
2023/10/09 07:34:57;;;;;;;0.10;0.10;;;;;;;24.05;65.75;101876.97;5071911;28;20032;-64
2023/10/09 07:37:35;;;;;;;0.05;0.05;;;;;;;24.28;64.93;101885.25;5071865;28;20037;-64
2023/10/09 07:40:07;;;;;;;0.00;0.00;;;;;;;23.87;66.97;101888.66;5055096;28;20041;-64
2023/10/09 07:42:34;;;;;;;0.00;0.00;;;;;;;23.98;65.76;101885.50;5087107;28;20032;-66
2023/10/09 07:45:11;;;;;;;0.00;0.00;;;;;;;24.27;65.20;101872.59;5072337;28;20078;-63
2023/10/09 07:50:40;;;;;;;0.00;0.00;;;;;;;24.39;64.17;101866.72;4989581;28;20053;-64
2023/10/09 07:53:25;;;;;;;0.00;0.00;;;;;;;24.01;66.11;101851.16;4989487;28;20041;-65
2023/10/09 07:55:55;;;;;;;0.03;0.03;;;;;;;24.45;63.93;101851.00;4989222;28;20522;-63
2023/10/09 07:58:25;;;;;;;0.00;0.00;;;;;;;24.61;63.67;101834.00;4989600;28;20314;-65
2023/10/09 08:01:15;;;;;;;0.00;0.00;;;;;;;24.12;65.57;101861.78;4989432;28;20046;-64
2023/10/09 08:03:45;;;;;;;0.00;0.00;;;;;;;24.20;65.25;101874.06;4989553;28;20034;-64
2023/10/09 08:17:20;;;;;;;0.00;0.00;;;;;;;24.79;63.26;101824.19;4989439;28;20054;-62
2023/10/09 08:20:11;;;;;;;0.00;0.00;;;;;;;24.88;62.56;101816.91;4989106;28;20034;-64
2023/10/09 08:22:43;;;;;;;0.00;0.00;;;;;;;24.80;63.62;101840.41;4989199;28;20490;-63
2023/10/09 08:25:32;;;;;;;0.00;0.00;;;;;;;24.20;65.10;101865.81;4989280;28;20297;-62
2023/10/09 08:36:01;;;;;;;0.00;0.00;;;;;;;25.01;62.53;101899.50;5028888;28;20062;-63
2023/10/09 08:38:33;;;;;;;0.00;0.00;;;;;;;24.76;63.72;101901.75;5028081;28;20143;-62
2023/10/09 08:41:15;;;;;;;0.05;0.05;;;;;;;25.34;61.80;101916.91;5046805;28;20171;-63
2023/10/09 08:43:47;;;;;;;0.00;0.00;;;;;;;25.16;62.50;101934.22;5048210;28;20060;-63
2023/10/09 08:46:18;;;;;;;0.00;0.00;;;;;;;24.86;63.65;101949.22;5047882;28;20056;-64
2023/10/09 08:48:45;;;;;;;0.00;0.00;;;;;;;24.70;64.53;101944.97;5047859;28;20045;-63
2023/10/09 08:51:10;;;;;;;0.00;0.00;;;;;;;24.55;64.90;101956.13;5048518;28;20068;-64
2023/10/09 08:53:42;;;;;;;0.00;0.00;;;;;;;24.16;66.10;101966.41;5047652;28;20033;-63
2023/10/09 08:56:14;;;;;;;0.00;0.00;;;;;;;25.82;60.81;101958.88;5047705;28;20080;-65
2023/10/09 08:58:40;;;;;;;0.00;0.00;;;;;;;25.40;62.31;101964.47;5047676;28;20071;-63
2023/10/09 09:01:06;;;;;;;0.00;0.00;;;;;;;24.82;64.00;101983.09;5047789;28;20512;-64
2023/10/09 09:03:45;;;;;;;0.00;0.00;;;;;;;24.65;65.69;101974.47;5047674;28;20025;-65
2023/10/09 09:06:11;;;;;;;0.00;0.00;;;;;;;24.65;65.25;101978.00;5048244;28;20130;-63
2023/10/09 09:08:36;;;;;;;0.00;0.00;;;;;;;24.95;65.53;101983.19;5067024;28;20492;-64
2023/10/09 09:11:23;;;;;;;0.00;0.00;;;;;;;24.65;65.47;101982.72;5070351;28;20032;-65
2023/10/09 09:14:04;;;;;;;0.00;0.00;;;;;;;25.14;62.53;101975.78;5070262;28;20472;-63
2023/10/09 09:16:30;;;;;;;0.00;0.00;;;;;;;24.96;63.76;101982.06;5070129;28;20037;-63
2023/10/09 09:19:17;;;;;;;0.00;0.00;;;;;;;25.05;64.13;101996.84;5070483;28;20067;-64
2023/10/09 09:21:48;;;;;;;0.08;0.08;;;;;;;25.31;63.18;101983.56;5069666;28;20093;-63
2023/10/09 09:26:59;;;;;;;0.00;0.00;;;;;;;25.23;64.45;101974.03;5070130;28;20048;-63
2023/10/09 09:29:37;;;;;;;0.00;0.00;;;;;;;24.35;67.09;101973.63;5069708;28;20431;-65
2023/10/09 09:32:17;;;;;;;0.00;0.00;;;;;;;24.60;67.14;101983.56;5069902;28;20067;-64
2023/10/09 09:35:04;;;;;;;0.00;0.00;;;;;;;25.63;63.12;101969.91;5083406;28;20048;-64
2023/10/09 09:37:32;;;;;;;0.00;0.00;;;;;;;24.62;65.82;101980.53;5033617;28;20055;-64
2023/10/09 09:40:14;;;;;;;0.00;0.00;;;;;;;25.81;61.60;101971.84;5049796;28;20413;-64
2023/10/09 09:42:48;;;;;;;0.00;0.00;;;;;;;25.70;61.34;101970.38;5049779;28;20503;-64
2023/10/09 09:45:14;;;;;;;0.00;0.00;;;;;;;26.19;59.97;101967.09;5049574;28;20350;-64
2023/10/09 09:47:46;;;;;;;0.00;0.00;;;;;;;25.66;60.33;101974.00;5049549;28;20068;-62
2023/10/09 09:50:24;;;;;;;0.00;0.00;;;;;;;25.79;59.90;101976.81;5049418;28;20041;-64
2023/10/09 09:52:55;;;;;;;0.00;0.00;;;;;;;26.03;59.32;101982.22;5049420;28;20052;-63
2023/10/09 09:55:30;;;;;;;0.00;0.00;;;;;;;24.99;62.89;101976.00;5049326;28;20044;-64
2023/10/09 09:57:57;;;;;;;0.00;0.00;;;;;;;25.06;62.77;101978.41;5056472;28;20041;-63
2023/10/09 10:00:30;;;;;;;0.00;0.00;;;;;;;25.10;62.77;101976.69;5069602;28;20024;-64
2023/10/09 10:03:10;;;;;;;0.08;0.08;;;;;;;25.01;61.32;101984.78;5070045;28;20026;-63
2023/10/09 10:05:37;;;;;;;0.00;0.00;;;;;;;25.35;61.96;101992.03;5069611;28;20032;-63
2023/10/09 10:08:05;;;;;;;0.00;0.00;;;;;;;25.08;62.54;101976.19;5068882;28;20119;-64
2023/10/09 10:10:39;;;;;;;0.00;0.00;;;;;;;25.32;60.64;101979.69;5069118;28;20307;-64
2023/10/09 10:13:05;;;;;;;0.00;0.00;;;;;;;25.26;61.42;101973.44;5068986;28;20037;-64
2023/10/09 10:15:56;;;;;;;0.00;0.00;;;;;;;25.21;60.47;101968.03;5068743;28;20017;-63
2023/10/09 10:18:23;;;;;;;0.00;0.00;;;;;;;26.17;58.21;101968.53;5068882;28;20092;-64
2023/10/09 10:21:14;;;;;;;0.00;0.00;;;;;;;25.55;59.00;101972.53;5069391;28;20043;-62
2023/10/09 10:23:40;;;;;;;0.00;0.00;;;;;;;25.43;60.62;101989.50;5069437;28;20070;-63
2023/10/09 10:26:30;;;;;;;0.00;0.00;;;;;;;26.10;58.80;101982.72;5068994;28;20028;-63
2023/10/09 10:29:22;;;;;;;0.00;0.00;;;;;;;26.21;57.54;101986.91;5068962;28;20641;-62
2023/10/09 10:32:01;;;;;;;0.00;0.00;;;;;;;25.88;59.42;101983.31;5053662;28;20446;-64
2023/10/09 10:34:46;;;;;;;0.00;0.00;;;;;;;26.53;57.11;101970.34;5068634;28;20040;-63
2023/10/09 10:37:13;;;;;;;0.00;0.00;;;;;;;26.65;56.15;101978.13;5068691;28;20048;-63
2023/10/09 10:39:50;;;;;;;0.00;0.00;;;;;;;26.18;58.65;101967.41;5068567;28;20096;-63
2023/10/09 10:42:33;;;;;;;0.00;0.00;;;;;;;26.49;56.97;101968.50;5069231;28;20132;-64
2023/10/09 10:45:02;;;;;;;0.00;0.00;;;;;;;26.38;56.85;101965.09;5069133;28;20072;-64
2023/10/09 10:47:34;;;;;;;0.00;0.00;;;;;;;26.24;57.49;101974.47;5068809;28;20260;-63
2023/10/09 10:52:57;;;;;;;0.00;0.00;;;;;;;26.15;57.73;101966.06;5068786;28;20071;-63
2023/10/09 10:58:00;;;;;;;0.00;0.00;;;;;;;25.78;59.27;101966.13;5075036;28;20045;-62
2023/10/09 11:03:18;;;;;;;0.00;0.00;;;;;;;25.69;60.37;101965.16;5076424;28;20027;-63
2023/10/09 11:05:50;;;;;;;0.00;0.00;;;;;;;25.82;60.12;101969.91;5075235;28;20078;-62
2023/10/09 11:08:16;;;;;;;0.00;0.00;;;;;;;26.06;58.69;101984.44;5075114;28;20032;-63
2023/10/09 11:10:49;;;;;;;0.00;0.00;;;;;;;26.32;58.23;101985.59;5075112;28;20099;-63
2023/10/09 11:13:33;;;;;;;0.00;0.00;;;;;;;25.87;59.54;102002.88;5075485;28;20060;-65
2023/10/09 11:16:32;;;;;;;0.00;0.00;;;;;;;25.60;60.11;101992.53;5075173;28;20531;-63
2023/10/09 11:18:46;;;;;;;0.00;0.00;;;;;;;25.46;61.02;101993.56;5074663;28;20143;-63
2023/10/09 11:23:53;;;;;;;0.00;0.00;;;;;;;24.83;64.30;102006.72;5075133;28;20033;-63
2023/10/09 11:26:28;;;;;;;0.00;0.00;;;;;;;25.99;59.94;102009.56;5081002;28;20037;-64
2023/10/09 11:32:01;;;;;;;0.00;0.00;;;;;;;26.18;59.53;102011.50;5075133;28;20518;-64
2023/10/09 11:34:35;;;;;;;0.00;0.00;;;;;;;25.10;62.54;102015.22;5074866;28;20060;-64
2023/10/09 11:37:02;;;;;;;0.00;0.00;;;;;;;25.37;62.58;102014.59;5075073;28;20123;-62
2023/10/09 11:39:37;;;;;;;0.00;0.00;;;;;;;25.10;63.31;102024.25;5075086;28;20410;-63
2023/10/09 11:42:07;;;;;;;0.00;0.00;;;;;;;25.54;62.30;102002.00;5075234;28;20107;-63
2023/10/09 11:44:45;;;;;;;0.00;0.00;;;;;;;25.24;64.02;101994.94;5056877;28;20040;-64
2023/10/09 11:49:56;;;;;;;0.00;0.00;;;;;;;24.69;67.03;102014.81;5074791;28;20439;-64
2023/10/09 11:52:38;;;;;;;0.00;0.00;;;;;;;23.62;69.96;102017.84;5074823;28;20282;-63
2023/10/09 11:55:14;;;;;;;0.00;0.00;;;;;;;24.19;69.87;102018.03;5074451;28;20457;-63
2023/10/09 11:57:40;;;;;;;0.00;0.00;;;;;;;24.03;69.77;102013.75;5074292;28;20044;-63
2023/10/09 12:00:28;;;;;;;0.00;0.00;;;;;;;23.64;71.48;102027.47;5075339;28;20024;-64
2023/10/09 12:02:52;;;;;;;0.00;0.00;;;;;;;24.34;69.10;102021.47;5074804;28;20076;-64
2023/10/09 12:05:18;;;;;;;0.03;0.03;;;;;;;24.50;68.70;102024.06;5074666;28;20489;-63
2023/10/09 12:07:56;;;;;;;0.00;0.00;;;;;;;23.76;70.66;102013.38;5071183;28;20128;-66
2023/10/09 12:10:25;;;;;;;0.00;0.00;;;;;;;24.35;68.42;102014.84;5071409;28;20037;-63
2023/10/09 12:12:57;;;;;;;0.03;0.03;;;;;;;24.99;66.47;102000.75;5071536;28;20036;-63
2023/10/09 12:15:23;;;;;;;0.00;0.00;;;;;;;24.02;68.16;101993.72;5071153;28;20052;-64
2023/10/09 12:17:49;;;;;;;0.10;0.10;;;;;;;25.34;64.72;101993.97;5072053;28;20051;-64
2023/10/09 12:20:30;;;;;;;0.03;0.03;;;;;;;25.36;63.41;101980.72;5071563;28;20055;-64
2023/10/09 12:23:00;;;;;;;0.00;0.00;;;;;;;25.81;62.44;101984.78;5080466;28;20032;-64
2023/10/09 12:25:26;;;;;;;0.00;0.00;;;;;;;24.79;65.22;101989.16;5076837;28;20037;-63
2023/10/09 12:27:57;;;;;;;0.00;0.00;;;;;;;25.43;63.71;101972.97;5071208;28;20067;-64
2023/10/09 12:30:26;;;;;;;0.00;0.00;;;;;;;25.52;62.71;101987.69;5071502;28;20379;-64
2023/10/09 12:32:53;;;;;;;0.00;0.00;;;;;;;25.94;61.94;101984.03;5071622;28;20111;-63
2023/10/09 12:35:19;;;;;;;0.00;0.00;;;;;;;25.97;61.09;101984.25;5071084;28;20489;-63
2023/10/09 12:37:44;;;;;;;0.00;0.00;;;;;;;26.38;60.34;101976.13;5070759;28;20073;-63
2023/10/09 12:40:10;;;;;;;0.00;0.00;;;;;;;26.40;59.69;101975.81;5070726;28;20423;-63
2023/10/09 12:42:36;;;;;;;0.00;0.00;;;;;;;26.45;60.33;101975.75;5070909;28;20051;-64
2023/10/09 12:45:08;;;;;;;0.00;0.00;;;;;;;26.06;60.56;101981.66;5071090;28;20091;-63
2023/10/09 12:47:34;;;;;;;0.00;0.00;;;;;;;26.37;60.73;101968.16;5070586;28;20044;-63
2023/10/09 12:49:59;;;;;;;0.00;0.00;;;;;;;25.74;62.55;101973.34;5070679;28;20044;-64
2023/10/09 12:52:29;;;;;;;0.00;0.00;;;;;;;25.87;62.72;101978.91;5070612;28;20113;-63
2023/10/09 12:54:55;;;;;;;0.00;0.00;;;;;;;26.14;61.01;101975.47;5070327;28;20127;-64
2023/10/09 12:57:21;;;;;;;0.00;0.00;;;;;;;25.81;62.30;101979.28;5070161;28;20155;-62
2023/10/09 12:59:48;;;;;;;0.00;0.00;;;;;;;25.74;63.16;101974.16;5071167;28;20047;-64
2023/10/09 13:02:28;;;;;;;0.00;0.00;;;;;;;26.59;59.52;101974.66;5070424;28;20403;-63
2023/10/09 13:04:57;;;;;;;0.00;0.00;;;;;;;26.39;60.15;101963.16;5070537;28;20141;-64
2023/10/09 13:07:22;;;;;;;0.00;0.00;;;;;;;25.95;61.13;101969.13;5070459;28;20039;-63
2023/10/09 13:12:32;;;;;;;0.00;0.00;;;;;;;26.01;60.58;101970.69;5070467;28;20094;-62
2023/10/09 13:14:58;;;;;;;0.00;0.00;;;;;;;25.14;64.54;101983.22;5070404;28;20025;-63
2023/10/09 13:17:26;;;;;;;0.00;0.00;;;;;;;25.99;61.89;101989.44;5070021;28;20037;-63
2023/10/09 13:19:52;;;;;;;0.00;0.00;;;;;;;25.34;63.69;101993.16;5076798;28;20131;-62
2023/10/09 13:22:18;;;;;;;0.00;0.00;;;;;;;25.05;64.14;101998.75;5070331;28;20159;-62
2023/10/09 13:24:43;;;;;;;0.00;0.00;;;;;;;25.67;61.83;101983.91;5070038;28;20553;-62
2023/10/09 13:27:09;;;;;;;0.00;0.00;;;;;;;25.36;63.69;101986.25;5071058;28;20035;-63
2023/10/09 13:29:39;;;;;;;0.00;0.00;;;;;;;25.27;62.81;101988.03;5069820;28;20028;-63
2023/10/09 13:32:13;;;;;;;0.00;0.00;;;;;;;25.90;61.73;101978.31;5070262;28;20033;-63
2023/10/09 13:34:44;;;;;;;0.00;0.00;;;;;;;26.23;60.68;101972.81;5069934;28;20506;-65
2023/10/09 13:37:13;;;;;;;0.00;0.00;;;;;;;26.52;59.72;101976.16;5069915;28;20431;-64
2023/10/09 13:39:40;;;;;;;0.00;0.00;;;;;;;26.17;59.91;101985.06;5069352;28;20044;-63
2023/10/09 13:42:07;;;;;;;0.00;0.00;;;;;;;26.22;60.34;101984.97;5070296;28;20028;-63
2023/10/09 13:44:34;;;;;;;0.00;0.00;;;;;;;25.27;63.02;102001.78;5069592;28;20048;-64
2023/10/09 13:47:05;;;;;;;0.00;0.00;;;;;;;25.51;62.39;102004.53;5069442;28;20119;-65
2023/10/09 13:49:31;;;;;;;0.00;0.00;;;;;;;26.01;61.18;101990.78;5069662;28;20056;-63
2023/10/09 13:52:01;;;;;;;0.00;0.00;;;;;;;25.96;61.44;101990.88;5069736;28;20044;-63
2023/10/09 13:56:59;;;;;;;0.00;0.00;;;;;;;25.82;61.30;101980.91;5069761;28;20041;-63
2023/10/09 13:59:25;;;;;;;0.00;0.00;;;;;;;25.00;63.40;101977.63;5069293;28;20106;-63
2023/10/09 14:01:54;;;;;;;0.00;0.00;;;;;;;25.85;61.94;101969.28;5069303;28;20047;-65
2023/10/09 14:04:21;;;;;;;0.00;0.00;;;;;;;26.58;58.84;101966.66;5069272;28;20040;-64
2023/10/09 14:06:47;;;;;;;0.00;0.00;;;;;;;26.89;57.60;101971.31;5069371;28;20051;-62
2023/10/09 14:09:27;;;;;;;0.00;0.00;;;;;;;27.48;56.56;101967.56;5069370;28;20050;-64
2023/10/09 14:12:11;;;;;;;0.00;0.00;;;;;;;27.28;56.11;101976.25;5069048;28;20044;-64
2023/10/09 14:14:40;;;;;;;0.00;0.00;;;;;;;26.77;58.51;101976.50;5071002;28;20028;-63
2023/10/09 14:17:13;;;;;;;0.00;0.00;;;;;;;25.34;63.47;101982.97;5052638;28;20033;-64
2023/10/09 14:19:49;;;;;;;0.00;0.00;;;;;;;25.66;62.12;101979.50;5068874;28;20036;-63
2023/10/09 14:22:16;;;;;;;0.00;0.00;;;;;;;26.18;60.51;101973.72;5068998;28;20043;-63
2023/10/09 14:24:55;;;;;;;0.00;0.00;;;;;;;27.49;56.01;101974.72;5068970;28;20109;-63
2023/10/09 14:27:24;;;;;;;0.00;0.00;;;;;;;27.00;57.52;101974.69;5068985;28;20112;-64
2023/10/09 14:29:49;;;;;;;0.00;0.00;;;;;;;25.70;60.84;101967.63;5069129;28;20044;-63